KLBF/LBF METAR and TAF weather

Enter ICAO airport designator
Station Type Date Time Source
KLBF METAR 2022/05/26 04:53 UTC NOAA

KLBF 260453Z AUTO 02007KT 10SM CLR 09/05 A2991 RMK AO2 SLP123 T00940050


Station Type Date Time Source
KLBF Decoded METAR 2022/05/26 04:53 UTC NOAA

NORTH PLATTE REGIONAL AIRPORT , NE, United States (KLBF) 41-07N 100-40W 847M
May 26, 2022 - 12:53 AM EDT / 2022.05.26 0453 UTC
Wind: from the NNE (020 degrees) at 8 MPH (7 KT):0
Visibility: 10 mile(s):0
Sky conditions: clear
Temperature: 48.9 F (9.4 C)
Dew Point: 41.0 F (5.0 C)
Relative Humidity: 73%
Pressure (altimeter): 29.91 in. Hg (1012 hPa)
ob: KLBF 260453Z AUTO 02007KT 10SM CLR 09/05 A2991 RMK AO2 SLP123 T00940050
cycle: 5

Station Type Date Time Source
KLBF TAF 2022/05/25 18:36 UTC NOAA

TAF KLBF 251734Z 2518/2618 01017G25KT P6SM BKN040
FM252200 02015G23KT P6SM FEW250
FM260000 02010KT P6SM FEW250
FM260400 34005KT P6SM FEW250

Example: see airport list